createdAt,value
2022-09-16T00:00:04.755Z,13.39
2022-09-16T00:01:04.806Z,13.36
2022-09-16T00:02:04.803Z,13.29
2022-09-16T00:03:04.742Z,13.32
2022-09-16T00:04:04.724Z,13.36
2022-09-16T00:05:04.774Z,13.19
2022-09-16T00:06:04.679Z,13.35
2022-09-16T00:07:04.686Z,13.32
2022-09-16T00:08:04.665Z,13.27
2022-09-16T00:09:04.699Z,13.38
2022-09-16T00:10:04.637Z,13.27
2022-09-16T00:11:04.633Z,13.27
2022-09-16T00:12:04.644Z,13.27
2022-09-16T00:13:04.620Z,13.25
2022-09-16T00:14:04.681Z,13.25
2022-09-16T00:15:04.576Z,13.21
2022-09-16T00:16:04.642Z,13.24
2022-09-16T00:17:04.585Z,13.24
2022-09-16T00:18:04.557Z,13.31
2022-09-16T00:19:04.531Z,13.32
2022-09-16T00:20:04.516Z,13.24
2022-09-16T00:21:04.525Z,13.25
2022-09-16T00:22:04.506Z,13.31
2022-09-16T00:23:04.519Z,13.24
2022-09-16T00:24:04.512Z,13.25
2022-09-16T00:25:04.555Z,13.32
2022-09-16T00:26:04.472Z,13.21
2022-09-16T00:27:04.453Z,13.29
2022-09-16T00:28:04.474Z,13.31
2022-09-16T00:29:04.474Z,13.21
2022-09-16T00:30:04.405Z,13.13
2022-09-16T00:31:04.499Z,13.10
2022-09-16T00:32:04.385Z,13.16
2022-09-16T00:33:04.391Z,13.14
2022-09-16T00:34:04.412Z,13.16
2022-09-16T00:35:04.472Z,13.12
2022-09-16T00:36:04.370Z,13.10
2022-09-16T00:37:04.346Z,13.09
2022-09-16T00:38:04.324Z,13.14
2022-09-16T00:39:04.368Z,13.22
2022-09-16T00:40:04.363Z,13.19
2022-09-16T00:41:04.303Z,13.22
2022-09-16T00:42:04.276Z,13.17
2022-09-16T00:43:04.318Z,13.19
2022-09-16T00:44:04.312Z,13.17
2022-09-16T00:45:04.284Z,13.21
2022-09-16T00:46:04.252Z,13.17
2022-09-16T00:47:04.277Z,13.12
2022-09-16T00:48:04.251Z,13.16
2022-09-16T00:49:04.278Z,13.13
2022-09-16T00:50:04.237Z,13.17
2022-09-16T00:51:04.219Z,13.16
2022-09-16T00:52:04.186Z,13.14
2022-09-16T00:53:04.165Z,13.07
2022-09-16T00:54:04.203Z,13.09
2022-09-16T00:55:04.227Z,13.07
2022-09-16T00:56:04.117Z,13.13
2022-09-16T00:57:04.118Z,13.12
2022-09-16T00:58:04.098Z,13.09
2022-09-16T00:59:04.126Z,13.13
2022-09-16T01:00:04.102Z,13.16
2022-09-16T01:01:04.225Z,13.17
2022-09-16T01:02:04.126Z,13.22
2022-09-16T01:03:04.048Z,13.16
2022-09-16T01:04:04.064Z,13.17
2022-09-16T01:05:04.057Z,13.21
2022-09-16T01:06:04.023Z,13.28
2022-09-16T01:07:04.033Z,13.25
2022-09-16T01:08:04.113Z,13.17
2022-09-16T01:09:04.025Z,13.24
2022-09-16T01:10:03.971Z,13.29
2022-09-16T01:11:04.029Z,13.27
2022-09-16T01:12:03.939Z,13.29
2022-09-16T01:13:03.933Z,13.35
2022-09-16T01:14:03.986Z,13.35
2022-09-16T01:15:03.931Z,13.28
2022-09-16T01:16:03.988Z,13.31
2022-09-16T01:17:03.912Z,13.29
2022-09-16T01:18:03.907Z,13.35
2022-09-16T01:19:03.912Z,13.41
2022-09-16T01:20:03.883Z,13.36
2022-09-16T01:21:03.916Z,13.35
2022-09-16T01:22:03.829Z,13.38
2022-09-16T01:23:03.835Z,13.38
2022-09-16T01:24:03.817Z,13.38
2022-09-16T01:25:03.829Z,13.39
2022-09-16T01:26:03.789Z,13.38
2022-09-16T01:27:03.770Z,13.41
2022-09-16T01:28:03.758Z,13.41
2022-09-16T01:29:03.801Z,13.48
2022-09-16T01:30:03.759Z,13.41
2022-09-16T01:31:03.783Z,13.59
2022-09-16T01:32:03.735Z,13.41
2022-09-16T01:33:03.728Z,13.38
2022-09-16T01:34:03.706Z,13.38
2022-09-16T01:35:03.697Z,13.38
2022-09-16T01:36:03.741Z,13.39
2022-09-16T01:37:03.680Z,13.46
2022-09-16T01:38:03.664Z,13.44
2022-09-16T01:39:03.653Z,13.35
2022-09-16T01:40:03.727Z,13.43
2022-09-16T01:41:03.670Z,13.32
2022-09-16T01:42:03.669Z,13.38
2022-09-16T01:43:03.599Z,13.43
2022-09-16T01:44:03.587Z,13.39
2022-09-16T01:45:03.577Z,13.38
2022-09-16T01:46:03.798Z,13.43
2022-09-16T01:47:03.554Z,13.41
2022-09-16T01:48:03.562Z,13.38
2022-09-16T01:49:03.585Z,13.44
2022-09-16T01:50:03.607Z,13.35
2022-09-16T01:51:03.604Z,13.38
2022-09-16T01:52:03.493Z,13.32
2022-09-16T01:53:03.485Z,13.27
2022-09-16T01:54:03.525Z,13.36
2022-09-16T01:55:03.473Z,13.35
2022-09-16T01:56:03.459Z,13.44
2022-09-16T01:57:03.514Z,13.39
2022-09-16T01:58:03.423Z,13.44
2022-09-16T01:59:03.476Z,13.39
2022-09-16T02:00:03.410Z,13.36
2022-09-16T02:01:03.411Z,13.41
2022-09-16T02:02:03.578Z,13.43
2022-09-16T02:03:03.499Z,13.36
2022-09-16T02:04:03.417Z,13.38
2022-09-16T02:05:03.372Z,13.44
2022-09-16T02:06:03.364Z,13.39
2022-09-16T02:07:03.363Z,13.38
2022-09-16T02:08:03.345Z,13.50
2022-09-16T02:09:03.611Z,13.43
2022-09-16T02:10:03.301Z,13.55
2022-09-16T02:11:03.309Z,13.50
2022-09-16T02:12:03.286Z,13.44
2022-09-16T02:13:03.280Z,13.44
2022-09-16T02:14:03.295Z,13.47
2022-09-16T02:15:03.250Z,13.53
2022-09-16T02:16:03.304Z,13.54
2022-09-16T02:17:03.235Z,13.50
2022-09-16T02:18:03.251Z,13.51
2022-09-16T02:19:03.215Z,13.54
2022-09-16T02:20:03.211Z,13.55
2022-09-16T02:21:03.224Z,13.51
2022-09-16T02:22:03.200Z,13.55
2022-09-16T02:23:03.166Z,13.55
2022-09-16T02:24:03.149Z,13.65
2022-09-16T02:25:03.124Z,13.65
2022-09-16T02:26:03.193Z,13.66
2022-09-16T02:27:03.129Z,13.57
2022-09-16T02:28:03.129Z,13.69
2022-09-16T02:29:03.092Z,13.69
2022-09-16T02:30:03.080Z,13.66
2022-09-16T02:31:03.104Z,13.65
2022-09-16T02:32:03.105Z,13.71
2022-09-16T02:33:03.062Z,13.73
2022-09-16T02:34:03.059Z,13.75
2022-09-16T02:35:03.030Z,13.76
2022-09-16T02:36:03.126Z,13.79
2022-09-16T02:37:03.041Z,13.83
2022-09-16T02:38:02.998Z,13.83
2022-09-16T02:39:03.280Z,13.80
2022-09-16T02:40:03.045Z,13.84
2022-09-16T02:41:02.950Z,13.83
2022-09-16T02:42:02.944Z,13.86
2022-09-16T02:43:02.929Z,13.94
2022-09-16T02:44:02.974Z,13.91
2022-09-16T02:45:02.926Z,13.87
2022-09-16T02:46:02.970Z,13.88
2022-09-16T02:47:02.901Z,13.88
2022-09-16T02:48:02.873Z,13.90
2022-09-16T02:49:02.868Z,13.91
2022-09-16T02:50:02.898Z,13.86
2022-09-16T02:51:02.849Z,13.93
2022-09-16T02:52:02.837Z,13.90
2022-09-16T02:53:02.830Z,13.98
2022-09-16T02:54:02.826Z,13.84
2022-09-16T02:55:02.867Z,13.88
2022-09-16T02:56:02.799Z,13.87
2022-09-16T02:57:02.791Z,13.94
2022-09-16T02:58:02.778Z,13.98
2022-09-16T02:59:02.757Z,13.90
2022-09-16T03:00:02.764Z,13.88
2022-09-16T03:01:02.786Z,13.94
2022-09-16T03:02:02.838Z,13.93
2022-09-16T03:03:02.774Z,13.91
2022-09-16T03:04:02.705Z,13.94
2022-09-16T03:05:02.680Z,13.91
2022-09-16T03:06:02.709Z,13.88
2022-09-16T03:07:02.656Z,13.93
2022-09-16T03:08:02.695Z,13.90
2022-09-16T03:09:02.651Z,13.87
2022-09-16T03:10:02.644Z,13.96
2022-09-16T03:11:02.621Z,13.86
2022-09-16T03:12:02.675Z,13.96
2022-09-16T03:13:02.595Z,13.94
2022-09-16T03:14:02.613Z,13.93
2022-09-16T03:15:02.584Z,13.93
2022-09-16T03:16:02.640Z,13.94
2022-09-16T03:17:02.588Z,13.88
2022-09-16T03:18:02.569Z,13.93
2022-09-16T03:19:02.550Z,13.94
2022-09-16T03:20:02.578Z,13.99
2022-09-16T03:21:02.523Z,13.96
2022-09-16T03:22:02.525Z,13.91
2022-09-16T03:23:02.476Z,13.96
2022-09-16T03:24:02.486Z,13.91
2022-09-16T03:25:02.495Z,13.94
2022-09-16T03:26:02.450Z,13.94
2022-09-16T03:27:02.473Z,14.05
2022-09-16T03:28:02.444Z,14.02
2022-09-16T03:29:02.423Z,14.05
2022-09-16T03:30:02.430Z,14.04
2022-09-16T03:31:02.469Z,14.06
2022-09-16T03:32:02.415Z,14.11
2022-09-16T03:33:02.396Z,14.05
2022-09-16T03:34:02.383Z,14.06
2022-09-16T03:35:02.395Z,14.02
2022-09-16T03:36:02.348Z,14.16
2022-09-16T03:37:02.346Z,14.09
2022-09-16T03:38:02.384Z,14.08
2022-09-16T03:39:02.358Z,14.01
2022-09-16T03:40:02.383Z,14.06
2022-09-16T03:41:02.327Z,14.11
2022-09-16T03:42:02.283Z,14.12
2022-09-16T03:43:02.268Z,14.16
2022-09-16T03:44:04.181Z,14.08
2022-09-16T03:45:02.304Z,14.02
2022-09-16T03:46:02.301Z,14.02
2022-09-16T03:47:02.235Z,13.98
2022-09-16T03:48:02.209Z,13.94
2022-09-16T03:49:02.222Z,14.02
2022-09-16T03:50:02.189Z,14.02
2022-09-16T03:51:02.183Z,13.98
2022-09-16T03:52:02.182Z,14.06
2022-09-16T03:53:02.193Z,14.05
2022-09-16T03:54:02.178Z,14.09
2022-09-16T03:55:02.264Z,14.12
2022-09-16T03:56:02.149Z,14.13
2022-09-16T03:57:02.138Z,14.12
2022-09-16T03:58:02.111Z,14.16
2022-09-16T03:59:02.130Z,14.08
2022-09-16T04:00:02.103Z,14.06
2022-09-16T04:01:02.107Z,14.13
2022-09-16T04:02:02.098Z,14.13
2022-09-16T04:03:02.084Z,14.20
2022-09-16T04:04:02.062Z,14.17
2022-09-16T04:05:02.125Z,14.23
2022-09-16T04:06:02.020Z,14.26
2022-09-16T04:07:02.061Z,14.29
2022-09-16T04:08:02.036Z,14.21
2022-09-16T04:09:02.027Z,14.29
2022-09-16T04:10:02.010Z,14.20
2022-09-16T04:11:02.010Z,14.26
2022-09-16T04:12:01.967Z,14.24
2022-09-16T04:13:01.956Z,14.27
2022-09-16T04:14:02.001Z,14.27
2022-09-16T04:15:01.920Z,14.26
2022-09-16T04:16:01.963Z,14.26
2022-09-16T04:17:01.896Z,14.38
2022-09-16T04:18:01.912Z,14.27
2022-09-16T04:19:01.886Z,14.31
2022-09-16T04:20:01.860Z,14.35
2022-09-16T04:21:01.898Z,14.31
2022-09-16T04:22:01.847Z,14.27
2022-09-16T04:23:01.835Z,14.34
2022-09-16T04:24:01.841Z,14.24
2022-09-16T04:25:01.856Z,14.34
2022-09-16T04:26:01.794Z,14.27
2022-09-16T04:27:01.776Z,14.17
2022-09-16T04:28:01.766Z,14.19
2022-09-16T04:29:01.812Z,14.16
2022-09-16T04:30:01.753Z,14.09
2022-09-16T04:31:01.814Z,14.21
2022-09-16T04:32:01.722Z,14.19
2022-09-16T04:33:01.729Z,14.19
2022-09-16T04:34:01.745Z,14.12
2022-09-16T04:35:01.690Z,14.21
2022-09-16T04:36:01.678Z,14.09
2022-09-16T04:37:01.709Z,14.16
2022-09-16T04:38:01.656Z,14.21
2022-09-16T04:39:01.680Z,14.24
2022-09-16T04:40:04.700Z,14.08
2022-09-16T04:41:01.622Z,14.21
2022-09-16T04:42:01.617Z,14.13
2022-09-16T04:43:01.648Z,14.19
2022-09-16T04:44:01.665Z,14.19
2022-09-16T04:45:01.597Z,14.27
2022-09-16T04:46:01.649Z,14.29
2022-09-16T04:47:01.583Z,14.34
2022-09-16T04:48:01.586Z,14.27
2022-09-16T04:49:01.569Z,14.29
2022-09-16T04:50:01.533Z,14.34
2022-09-16T04:51:01.517Z,14.38
2022-09-16T04:52:01.538Z,14.34
2022-09-16T04:53:01.493Z,14.30
2022-09-16T04:54:01.514Z,14.24
2022-09-16T04:55:01.524Z,14.35
2022-09-16T04:56:01.468Z,14.36
2022-09-16T04:57:01.471Z,14.31
2022-09-16T04:58:01.473Z,14.31
2022-09-16T04:59:01.515Z,14.29
2022-09-16T05:00:01.457Z,14.17
2022-09-16T05:01:01.562Z,14.20
2022-09-16T05:02:01.536Z,14.19
2022-09-16T05:03:01.402Z,14.11
2022-09-16T05:04:01.416Z,14.06
2022-09-16T05:05:01.365Z,14.13
2022-09-16T05:06:01.383Z,14.19
2022-09-16T05:07:01.463Z,14.12
2022-09-16T05:08:01.326Z,14.08
2022-09-16T05:09:01.350Z,14.20
2022-09-16T05:10:01.339Z,14.13
2022-09-16T05:11:01.301Z,14.08
2022-09-16T05:12:01.287Z,14.11
2022-09-16T05:13:01.277Z,14.05
2022-09-16T05:14:01.416Z,14.09
2022-09-16T05:15:01.253Z,14.04
2022-09-16T05:16:01.347Z,14.09
2022-09-16T05:17:01.351Z,14.09
2022-09-16T05:18:01.238Z,14.16
2022-09-16T05:19:01.278Z,14.05
2022-09-16T05:20:01.211Z,14.08
2022-09-16T05:21:01.194Z,14.08
2022-09-16T05:22:01.215Z,14.16
2022-09-16T05:23:01.233Z,14.20
2022-09-16T05:24:01.174Z,14.23
2022-09-16T05:25:01.165Z,14.19
2022-09-16T05:26:01.134Z,14.12
2022-09-16T05:27:01.143Z,14.12
2022-09-16T05:28:01.158Z,14.17
2022-09-16T05:29:01.145Z,14.17
2022-09-16T05:30:01.135Z,14.08
2022-09-16T05:31:01.157Z,14.21
2022-09-16T05:32:01.081Z,14.26
2022-09-16T05:33:01.179Z,14.30
2022-09-16T05:34:01.112Z,14.21
2022-09-16T05:35:01.032Z,14.29
2022-09-16T05:36:01.102Z,14.29
2022-09-16T05:37:01.018Z,14.30
2022-09-16T05:38:01.017Z,14.39
2022-09-16T05:39:27.856Z,14.31
2022-09-16T05:40:02.099Z,14.35
2022-09-16T05:41:00.996Z,14.44
2022-09-16T05:42:01.093Z,14.39
2022-09-16T05:43:00.984Z,14.27
2022-09-16T05:44:00.965Z,14.34
2022-09-16T05:45:00.945Z,14.44
2022-09-16T05:46:01.024Z,14.41
2022-09-16T05:47:00.999Z,14.38
2022-09-16T05:48:00.900Z,14.38
2022-09-16T05:49:01.119Z,14.38
2022-09-16T05:50:00.913Z,14.36
2022-09-16T05:51:00.868Z,14.39
2022-09-16T05:52:00.945Z,14.39
2022-09-16T05:53:00.844Z,14.48
2022-09-16T05:54:00.872Z,14.48
2022-09-16T05:55:00.869Z,14.42
2022-09-16T05:56:01.475Z,14.45
2022-09-16T05:57:04.649Z,14.63
2022-09-16T05:58:01.866Z,14.60
2022-09-16T05:59:00.826Z,14.49
2022-09-16T06:00:00.759Z,14.48
2022-09-16T06:01:00.760Z,14.52
2022-09-16T06:02:00.889Z,14.54
2022-09-16T06:03:00.807Z,14.46
2022-09-16T06:04:00.759Z,14.42
2022-09-16T06:05:00.877Z,14.49
2022-09-16T06:06:00.713Z,14.53
2022-09-16T06:07:00.708Z,14.49
2022-09-16T06:08:00.705Z,14.49
2022-09-16T06:09:00.783Z,14.48
2022-09-16T06:10:00.684Z,14.49
2022-09-16T06:11:00.654Z,14.49
2022-09-16T06:12:02.236Z,14.52
2022-09-16T06:13:00.645Z,14.49
2022-09-16T06:14:00.620Z,14.45
2022-09-16T06:15:00.665Z,14.49
2022-09-16T06:16:00.650Z,14.49
2022-09-16T06:17:00.596Z,14.48
2022-09-16T06:18:05.581Z,14.48
2022-09-16T06:19:01.569Z,14.52
2022-09-16T06:20:00.590Z,14.46
2022-09-16T06:21:00.683Z,14.59
2022-09-16T06:22:00.554Z,14.59
2022-09-16T06:23:00.532Z,14.67
2022-09-16T06:24:00.545Z,14.64
2022-09-16T06:25:00.555Z,14.60
2022-09-16T06:26:00.494Z,14.64
2022-09-16T06:27:00.474Z,14.75
2022-09-16T06:28:00.486Z,14.74
2022-09-16T06:29:00.671Z,14.72
2022-09-16T06:30:00.539Z,14.69
2022-09-16T06:31:00.581Z,14.75
2022-09-16T06:32:00.536Z,14.79
2022-09-16T06:33:00.428Z,14.91
2022-09-16T06:34:00.446Z,14.79
2022-09-16T06:35:00.453Z,14.79
2022-09-16T06:36:00.386Z,14.93
2022-09-16T06:37:00.500Z,14.97
2022-09-16T06:38:00.396Z,14.90
2022-09-16T06:39:00.347Z,14.94
2022-09-16T06:40:00.443Z,15.01
2022-09-16T06:41:00.430Z,15.04
2022-09-16T06:42:00.312Z,15.01
2022-09-16T06:43:00.472Z,15.07
2022-09-16T06:44:00.323Z,15.09
2022-09-16T06:45:00.303Z,15.09
2022-09-16T06:46:00.355Z,15.04
2022-09-16T06:47:00.264Z,15.07
2022-09-16T06:48:00.269Z,14.93
2022-09-16T06:49:04.563Z,14.98
2022-09-16T06:50:01.263Z,15.05
2022-09-16T06:51:00.339Z,15.00
2022-09-16T06:52:00.222Z,15.09
2022-09-16T06:53:00.319Z,15.09
2022-09-16T06:54:00.391Z,15.00
2022-09-16T06:55:00.197Z,15.07
2022-09-16T06:56:00.217Z,14.93
2022-09-16T06:57:00.185Z,15.01
2022-09-16T06:58:00.141Z,14.90
2022-09-16T06:59:00.297Z,14.95
2022-09-16T07:00:00.147Z,15.03
2022-09-16T07:01:00.209Z,15.00
2022-09-16T07:02:00.213Z,14.93
2022-09-16T07:03:00.093Z,14.94
2022-09-16T07:04:00.108Z,14.93
2022-09-16T07:05:00.122Z,14.93
2022-09-16T07:06:00.039Z,14.85
2022-09-16T07:07:15.549Z,14.83
2022-09-16T07:08:01.053Z,14.85
2022-09-16T07:09:00.152Z,14.74
2022-09-16T07:10:00.001Z,14.71
2022-09-16T07:11:00.066Z,14.63
2022-09-16T07:11:59.982Z,14.69
2022-09-16T07:13:00.085Z,14.75
2022-09-16T07:14:00.081Z,14.78
2022-09-16T07:14:59.961Z,14.71
2022-09-16T07:16:12.780Z,14.72
2022-09-16T07:17:01.073Z,14.71
2022-09-16T07:17:59.983Z,14.64
2022-09-16T07:19:01.058Z,14.67
2022-09-16T07:19:59.898Z,14.75
2022-09-16T07:20:59.878Z,14.71
2022-09-16T07:21:59.906Z,14.66
2022-09-16T07:22:59.876Z,14.71
2022-09-16T07:23:59.868Z,14.64
2022-09-16T07:24:59.962Z,14.67
2022-09-16T07:25:59.865Z,14.63
2022-09-16T07:26:59.835Z,14.63
2022-09-16T07:27:59.846Z,14.59
2022-09-16T07:28:59.846Z,14.67
2022-09-16T07:30:00.376Z,14.61
2022-09-16T07:30:59.881Z,14.46
2022-09-16T07:31:59.815Z,14.45
2022-09-16T07:32:59.772Z,14.49
2022-09-16T07:34:03.655Z,14.52
2022-09-16T07:34:59.757Z,14.53
2022-09-16T07:35:59.724Z,14.49
2022-09-16T07:36:59.735Z,14.38
2022-09-16T07:37:59.949Z,14.38
2022-09-16T07:38:59.780Z,14.39
2022-09-16T07:39:59.747Z,14.41
2022-09-16T07:40:59.784Z,14.23
2022-09-16T07:42:03.845Z,14.41
2022-09-16T07:43:00.719Z,14.38
2022-09-16T07:43:59.663Z,14.38
2022-09-16T07:44:59.751Z,14.34
2022-09-16T07:45:59.701Z,14.24
2022-09-16T07:46:59.611Z,14.29
2022-09-16T07:47:59.657Z,14.30
2022-09-16T07:48:59.630Z,14.17
2022-09-16T07:49:59.604Z,14.30
2022-09-16T07:50:59.585Z,14.34
2022-09-16T07:51:59.563Z,14.20
2022-09-16T07:52:59.569Z,14.36
2022-09-16T07:53:59.567Z,14.39
2022-09-16T07:54:59.569Z,14.34
2022-09-16T07:55:59.511Z,14.45
2022-09-16T07:56:59.629Z,14.49
2022-09-16T07:57:59.533Z,14.52
2022-09-16T07:58:59.525Z,14.49
2022-09-16T07:59:59.504Z,14.46
2022-09-16T08:01:04.011Z,14.63
2022-09-16T08:02:00.580Z,14.59
2022-09-16T08:02:59.533Z,14.63
2022-09-16T08:03:59.425Z,14.67
2022-09-16T08:04:59.435Z,14.66
2022-09-16T08:05:59.492Z,14.59
2022-09-16T08:06:59.414Z,14.66
2022-09-16T08:07:59.443Z,14.74
2022-09-16T08:09:05.794Z,14.66
2022-09-16T08:10:00.442Z,14.72
2022-09-16T08:10:59.359Z,14.86
2022-09-16T08:11:59.338Z,14.75
2022-09-16T08:12:59.445Z,14.82
2022-09-16T08:13:59.391Z,14.71
2022-09-16T08:14:59.338Z,14.74
2022-09-16T08:15:59.301Z,14.66
2022-09-16T08:16:59.367Z,14.83
2022-09-16T08:17:59.283Z,14.80
2022-09-16T08:18:59.356Z,14.80
2022-09-16T08:19:59.290Z,14.82
2022-09-16T08:20:59.247Z,15.00
2022-09-16T08:21:59.438Z,15.11
2022-09-16T08:22:59.216Z,15.13
2022-09-16T08:23:59.216Z,15.28
2022-09-16T08:24:59.309Z,15.34
2022-09-16T08:25:59.254Z,15.38
2022-09-16T08:26:59.219Z,15.04
2022-09-16T08:27:59.175Z,15.01
2022-09-16T08:29:10.405Z,14.94
2022-09-16T08:30:00.167Z,14.85
2022-09-16T08:30:59.178Z,14.94
2022-09-16T08:31:59.142Z,15.03
2022-09-16T08:32:59.176Z,15.03
2022-09-16T08:33:59.138Z,15.04
2022-09-16T08:34:59.086Z,14.94
2022-09-16T08:35:59.184Z,14.97
2022-09-16T08:36:59.091Z,15.01
2022-09-16T08:37:59.082Z,15.09
2022-09-16T08:38:59.050Z,14.98
2022-09-16T08:39:59.171Z,14.85
2022-09-16T08:40:59.029Z,14.94
2022-09-16T08:41:59.153Z,15.03
2022-09-16T08:42:59.021Z,15.01
2022-09-16T08:43:58.996Z,15.04
2022-09-16T08:44:59.101Z,15.03
2022-09-16T08:45:59.020Z,15.09
2022-09-16T08:46:58.972Z,15.09
2022-09-16T08:47:59.046Z,15.01
2022-09-16T08:48:58.935Z,15.05
2022-09-16T08:49:58.994Z,15.11
2022-09-16T08:50:58.921Z,15.23
2022-09-16T08:51:58.904Z,15.38
2022-09-16T08:52:58.885Z,15.64
2022-09-16T08:53:58.990Z,15.73
2022-09-16T08:54:58.907Z,15.81
2022-09-16T08:55:58.874Z,15.91
2022-09-16T08:56:58.846Z,15.99
2022-09-16T08:57:58.834Z,15.93
2022-09-16T08:58:58.927Z,15.92
2022-09-16T08:59:58.841Z,15.99
2022-09-16T09:00:58.973Z,16.04
2022-09-16T09:01:59.889Z,15.96
2022-09-16T09:02:58.913Z,16.04
2022-09-16T09:03:58.825Z,16.11
2022-09-16T09:04:58.942Z,16.04
2022-09-16T09:05:58.768Z,15.99
2022-09-16T09:06:58.872Z,15.92
2022-09-16T09:07:58.734Z,15.74
2022-09-16T09:08:58.748Z,15.74
2022-09-16T09:09:58.708Z,15.74
2022-09-16T09:10:58.756Z,15.89
2022-09-16T09:11:58.683Z,15.81
2022-09-16T09:12:59.779Z,15.86
2022-09-16T09:13:58.908Z,15.99
2022-09-16T09:14:58.665Z,15.99
2022-09-16T09:15:58.667Z,16.14
2022-09-16T09:16:58.764Z,16.22
2022-09-16T09:17:58.758Z,16.10
2022-09-16T09:18:58.598Z,16.29
2022-09-16T09:19:58.586Z,16.37
2022-09-16T09:20:58.676Z,16.40
2022-09-16T09:21:58.585Z,16.51
2022-09-16T09:22:58.557Z,16.45
2022-09-16T09:23:58.580Z,16.16
2022-09-16T09:24:58.533Z,15.98
2022-09-16T09:25:58.547Z,15.95
2022-09-16T09:26:58.509Z,16.04
2022-09-16T09:27:58.505Z,16.16
2022-09-16T09:28:58.533Z,16.16
2022-09-16T09:29:58.492Z,16.06
2022-09-16T09:30:58.500Z,15.95
2022-09-16T09:31:58.511Z,15.99
2022-09-16T09:32:58.631Z,16.07
2022-09-16T09:33:58.449Z,15.91
2022-09-16T09:34:58.422Z,15.95
2022-09-16T09:35:58.506Z,15.91
2022-09-16T09:36:58.405Z,16.04
2022-09-16T09:37:58.446Z,16.17
2022-09-16T09:38:58.382Z,16.18
2022-09-16T09:39:58.419Z,16.36
2022-09-16T09:40:58.388Z,16.47
2022-09-16T09:41:58.388Z,16.42
2022-09-16T09:42:58.360Z,16.69
2022-09-16T09:43:58.321Z,16.80
2022-09-16T09:45:01.404Z,16.82
2022-09-16T09:45:58.346Z,16.80
2022-09-16T09:46:58.390Z,16.87
2022-09-16T09:47:58.282Z,16.98
2022-09-16T09:48:58.398Z,17.05
2022-09-16T09:49:58.268Z,16.98
2022-09-16T09:50:58.248Z,17.20
2022-09-16T09:51:58.256Z,17.20
2022-09-16T09:52:58.221Z,17.22
2022-09-16T09:53:58.224Z,17.25
2022-09-16T09:54:58.220Z,17.39
2022-09-16T09:55:58.184Z,17.51
2022-09-16T09:56:58.200Z,17.33
2022-09-16T09:57:58.170Z,17.18
2022-09-16T09:58:58.167Z,17.00
2022-09-16T09:59:58.169Z,16.88
2022-09-16T10:00:58.197Z,16.77
2022-09-16T10:01:58.225Z,16.69
2022-09-16T10:02:58.109Z,16.34
2022-09-16T10:03:58.175Z,16.23
2022-09-16T10:04:58.218Z,16.16
2022-09-16T10:05:58.077Z,16.25
2022-09-16T10:06:58.089Z,16.17
2022-09-16T10:07:58.083Z,16.06
2022-09-16T10:08:58.055Z,16.13
2022-09-16T10:09:58.030Z,16.23
2022-09-16T10:10:58.021Z,16.30
2022-09-16T10:11:58.032Z,16.29
2022-09-16T10:12:58.042Z,16.26
2022-09-16T10:13:58.025Z,16.37
2022-09-16T10:14:57.970Z,16.54
2022-09-16T10:15:57.995Z,16.63
2022-09-16T10:16:57.946Z,16.73
2022-09-16T10:17:57.950Z,16.82
2022-09-16T10:18:57.979Z,16.95
2022-09-16T10:19:57.926Z,17.18
2022-09-16T10:20:58.039Z,17.15
2022-09-16T10:21:57.899Z,17.30
2022-09-16T10:22:57.907Z,17.32
2022-09-16T10:23:57.932Z,17.49
2022-09-16T10:24:57.902Z,17.40
2022-09-16T10:25:57.882Z,17.33
2022-09-16T10:26:57.870Z,17.15
2022-09-16T10:27:57.825Z,17.15
2022-09-16T10:28:58.038Z,17.28
2022-09-16T10:29:57.838Z,17.36
2022-09-16T10:30:57.809Z,17.58
2022-09-16T10:31:57.903Z,17.58
2022-09-16T10:32:57.815Z,17.71
2022-09-16T10:33:57.782Z,17.76
2022-09-16T10:34:57.874Z,17.87
2022-09-16T10:35:57.780Z,17.99
2022-09-16T10:36:57.846Z,17.36
2022-09-16T10:37:57.720Z,17.20
2022-09-16T10:39:02.279Z,17.14
2022-09-16T10:39:59.191Z,17.00
2022-09-16T10:40:57.813Z,16.99
2022-09-16T10:41:57.675Z,17.06
2022-09-16T10:42:57.697Z,17.12
2022-09-16T10:43:57.693Z,17.14
2022-09-16T10:44:58.654Z,17.35
2022-09-16T10:45:57.722Z,17.35
2022-09-16T10:46:57.615Z,17.22
2022-09-16T10:47:57.743Z,16.88
2022-09-16T10:48:57.604Z,16.77
2022-09-16T10:49:57.627Z,16.80
2022-09-16T10:50:57.612Z,16.69
2022-09-16T10:51:57.589Z,16.78
2022-09-16T10:52:57.681Z,16.48
2022-09-16T10:53:57.637Z,16.36
2022-09-16T10:54:57.551Z,16.37
2022-09-16T10:55:57.525Z,16.30
2022-09-16T10:56:57.528Z,16.23
2022-09-16T10:57:57.502Z,16.32
2022-09-16T10:58:57.703Z,16.29
2022-09-16T10:59:57.509Z,16.26
2022-09-16T11:00:57.605Z,16.34
2022-09-16T11:01:57.920Z,16.34
2022-09-16T11:02:57.446Z,16.52
2022-09-16T11:03:57.428Z,16.67
2022-09-16T11:04:57.477Z,16.77
2022-09-16T11:05:57.404Z,16.70
2022-09-16T11:06:57.396Z,16.70
2022-09-16T11:07:57.387Z,16.67
2022-09-16T11:08:57.524Z,16.63
2022-09-16T11:09:57.436Z,16.62
2022-09-16T11:10:57.490Z,16.59
2022-09-16T11:11:57.383Z,16.48
2022-09-16T11:12:57.374Z,16.47
2022-09-16T11:13:57.349Z,16.60
2022-09-16T11:14:57.353Z,16.63
2022-09-16T11:15:57.436Z,16.57
2022-09-16T11:16:57.300Z,16.30
2022-09-16T11:17:57.274Z,16.17
2022-09-16T11:18:57.302Z,16.13
2022-09-16T11:19:57.303Z,16.13
2022-09-16T11:20:57.263Z,16.11
2022-09-16T11:21:57.231Z,16.16
2022-09-16T11:22:57.295Z,16.08
2022-09-16T11:23:57.231Z,16.08
2022-09-16T11:24:57.321Z,16.06
2022-09-16T11:25:57.212Z,16.01
2022-09-16T11:26:57.197Z,16.08
2022-09-16T11:27:57.182Z,16.14
2022-09-16T11:28:57.227Z,16.07
2022-09-16T11:29:57.156Z,16.06
2022-09-16T11:30:57.207Z,16.03
2022-09-16T11:31:57.190Z,16.04
2022-09-16T11:32:59.827Z,16.04
2022-09-16T11:33:57.152Z,16.07
2022-09-16T11:34:57.086Z,16.04
2022-09-16T11:35:57.592Z,16.16
2022-09-16T11:36:57.137Z,16.07
2022-09-16T11:37:57.067Z,16.11
2022-09-16T11:38:57.095Z,16.14
2022-09-16T11:39:57.074Z,16.14
2022-09-16T11:40:57.165Z,16.29
2022-09-16T11:41:57.014Z,16.30
2022-09-16T11:42:57.021Z,16.17
2022-09-16T11:43:57.022Z,16.17
2022-09-16T11:44:56.994Z,16.25
2022-09-16T11:45:56.989Z,16.23
2022-09-16T11:46:57.071Z,16.32
2022-09-16T11:47:56.954Z,16.42
2022-09-16T11:48:56.966Z,16.51
2022-09-16T11:49:56.955Z,16.63
2022-09-16T11:50:56.948Z,16.69
2022-09-16T11:51:56.908Z,16.87
2022-09-16T11:53:01.649Z,16.96
2022-09-16T11:53:58.331Z,16.81
2022-09-16T11:54:56.935Z,16.67
2022-09-16T11:55:56.860Z,16.62
2022-09-16T11:56:57.003Z,16.78
2022-09-16T11:57:56.862Z,16.82
2022-09-16T11:58:56.856Z,16.92
2022-09-16T11:59:56.845Z,16.96
2022-09-16T12:00:56.818Z,16.88
2022-09-16T12:01:56.914Z,16.81
2022-09-16T12:02:56.833Z,16.75
2022-09-16T12:03:56.824Z,16.77
2022-09-16T12:04:56.803Z,16.72
2022-09-16T12:05:56.780Z,16.77
2022-09-16T12:06:56.743Z,16.85
2022-09-16T12:07:56.773Z,16.82
2022-09-16T12:08:56.718Z,16.98
2022-09-16T12:09:56.737Z,17.06
2022-09-16T12:10:56.726Z,17.00
2022-09-16T12:11:56.705Z,16.70
2022-09-16T12:12:56.811Z,16.70
2022-09-16T12:14:05.366Z,16.77
2022-09-16T12:15:01.966Z,16.87
2022-09-16T12:15:57.645Z,16.95
2022-09-16T12:16:56.631Z,17.03
2022-09-16T12:17:56.667Z,17.06
2022-09-16T12:18:56.645Z,17.09
2022-09-16T12:19:56.629Z,17.14
2022-09-16T12:20:56.664Z,17.17
2022-09-16T12:21:58.027Z,17.30
2022-09-16T12:22:56.607Z,17.24
2022-09-16T12:23:56.585Z,17.32
2022-09-16T12:24:56.561Z,17.30
2022-09-16T12:25:56.548Z,17.27
2022-09-16T12:26:56.564Z,17.28
2022-09-16T12:27:56.506Z,17.12
2022-09-16T12:28:56.631Z,16.87
2022-09-16T12:29:56.507Z,16.80
2022-09-16T12:30:56.522Z,16.88
2022-09-16T12:31:56.463Z,16.91
2022-09-16T12:32:56.486Z,17.00
2022-09-16T12:33:56.443Z,16.81
2022-09-16T12:34:56.457Z,16.77
2022-09-16T12:35:56.456Z,16.84
2022-09-16T12:36:56.433Z,16.80
2022-09-16T12:37:56.395Z,16.73
2022-09-16T12:38:56.383Z,16.65
2022-09-16T12:39:56.479Z,16.51
2022-09-16T12:40:56.379Z,16.50
2022-09-16T12:41:56.381Z,16.45
2022-09-16T12:42:56.349Z,16.18
2022-09-16T12:44:02.188Z,16.13
2022-09-16T12:44:57.495Z,16.07
2022-09-16T12:45:56.347Z,16.06
2022-09-16T12:46:56.387Z,16.01
2022-09-16T12:47:56.297Z,15.89
2022-09-16T12:48:56.281Z,15.89
2022-09-16T12:49:56.298Z,15.88
2022-09-16T12:50:56.272Z,15.91
2022-09-16T12:51:56.278Z,15.88